createdAt,value
2017-02-04T00:01:01.424Z,99.99
2017-02-04T00:02:10.851Z,99.99
2017-02-04T00:03:21.051Z,99.99
2017-02-04T00:04:30.489Z,99.99
2017-02-04T00:05:39.969Z,99.99
2017-02-04T00:06:49.013Z,99.99
2017-02-04T00:07:58.825Z,99.99
2017-02-04T00:09:08.636Z,99.99
2017-02-04T00:10:17.683Z,99.99
2017-02-04T00:11:27.163Z,99.99
2017-02-04T00:12:37.743Z,99.99
2017-02-04T00:13:46.786Z,99.99
2017-02-04T00:14:56.984Z,99.99
2017-02-04T00:16:06.798Z,99.99
2017-02-04T00:17:15.459Z,99.99
2017-02-04T00:18:25.697Z,99.99
2017-02-04T00:19:36.281Z,99.44
2017-02-04T00:20:46.093Z,99.99
2017-02-04T00:21:55.523Z,99.73
2017-02-04T00:23:04.950Z,99.35
2017-02-04T00:24:14.380Z,98.88
2017-02-04T00:25:24.235Z,99.16
2017-02-04T00:26:33.285Z,99.07
2017-02-04T00:27:42.716Z,98.88
2017-02-04T00:28:52.572Z,97.97
2017-02-04T00:30:02.386Z,98.02
2017-02-04T00:31:12.198Z,96.93
2017-02-04T00:32:22.393Z,97.12
2017-02-04T00:33:31.833Z,97.03
2017-02-04T00:34:41.647Z,96.55
2017-02-04T00:35:51.074Z,96.26
2017-02-04T00:37:00.888Z,96.84
2017-02-04T00:38:09.940Z,97.78
2017-02-04T00:39:19.754Z,96.74
2017-02-04T00:40:29.618Z,96.65
2017-02-04T00:41:39.815Z,97.03
2017-02-04T00:42:48.860Z,96.93
2017-02-04T00:43:58.679Z,96.98
2017-02-04T00:45:08.109Z,97.22
2017-02-04T00:46:17.541Z,97.74
2017-02-04T00:47:26.975Z,98.21
2017-02-04T00:48:36.788Z,98.21
2017-02-04T00:49:46.223Z,98.02
2017-02-04T00:50:56.047Z,98.31
2017-02-04T00:52:05.473Z,98.12
2017-02-04T00:53:14.516Z,98.5
2017-02-04T00:54:23.949Z,98.31
2017-02-04T00:55:33.766Z,96.88
2017-02-04T00:56:42.811Z,97.07
2017-02-04T00:57:53.005Z,97.17
2017-02-04T00:59:02.821Z,97.6
2017-02-04T01:00:12.639Z,97.07
2017-02-04T01:01:22.065Z,97.5
2017-02-04T01:02:31.537Z,96.93
2017-02-04T01:03:40.962Z,98.17
2017-02-04T01:04:50.393Z,97.97
2017-02-04T01:06:00.599Z,98.59
2017-02-04T01:07:10.028Z,98.59
2017-02-04T01:08:19.453Z,99.07
2017-02-04T01:09:28.505Z,99.16
2017-02-04T01:10:38.317Z,99.35
2017-02-04T01:11:48.513Z,99.99
2017-02-04T01:12:58.716Z,99.99
2017-02-04T01:14:08.913Z,99.99
2017-02-04T01:15:19.108Z,99.99
2017-02-04T01:16:28.959Z,99.99
2017-02-04T01:17:38.392Z,99.99
2017-02-04T01:18:48.591Z,99.99
2017-02-04T01:19:59.170Z,99.99
2017-02-04T01:21:08.624Z,99.99
2017-02-04T01:22:18.052Z,99.99
2017-02-04T01:23:27.864Z,99.99
2017-02-04T01:24:36.910Z,99.99
2017-02-04T01:25:47.103Z,99.99
2017-02-04T01:26:56.586Z,99.99
2017-02-04T01:28:06.024Z,99.99
2017-02-04T01:29:15.456Z,99.99
2017-02-04T01:30:25.268Z,99.99
2017-02-04T01:31:35.080Z,99.99
2017-02-04T01:32:44.891Z,99.99
2017-02-04T01:33:54.318Z,99.99
2017-02-04T01:35:04.137Z,99.99
2017-02-04T01:36:13.951Z,99.99
2017-02-04T01:37:23.380Z,99.99
2017-02-04T01:38:33.579Z,99.99
2017-02-04T01:39:43.007Z,99.99
2017-02-04T01:40:52.439Z,99.99
2017-02-04T01:42:02.663Z,99.99
2017-02-04T01:43:11.708Z,99.99
2017-02-04T01:44:21.184Z,99.99
2017-02-04T01:45:31.001Z,99.99
2017-02-04T01:46:40.430Z,99.99
2017-02-04T01:47:50.242Z,99.99
2017-02-04T01:48:59.292Z,99.99
2017-02-04T01:50:08.342Z,99.99
2017-02-04T01:51:18.158Z,99.99
2017-02-04T01:52:27.970Z,99.99
2017-02-04T01:53:37.435Z,99.99
2017-02-04T01:54:46.481Z,99.99
2017-02-04T01:55:55.921Z,99.99
2017-02-04T01:57:05.351Z,99.99
2017-02-04T01:58:15.166Z,99.99
2017-02-04T01:59:24.596Z,99.99
2017-02-04T02:00:33.642Z,99.99
2017-02-04T02:01:43.116Z,99.99
2017-02-04T02:02:52.165Z,99.99
2017-02-04T02:04:02.364Z,99.99
2017-02-04T02:05:11.410Z,99.99
2017-02-04T02:06:20.840Z,99.99
2017-02-04T02:07:29.886Z,99.99
2017-02-04T02:08:40.080Z,99.99
2017-02-04T02:09:50.274Z,99.99
2017-02-04T02:10:59.703Z,99.99
2017-02-04T02:12:09.899Z,99.99
2017-02-04T02:13:18.993Z,99.99
2017-02-04T02:14:28.810Z,99.99
2017-02-04T02:15:39.392Z,99.99
2017-02-04T02:16:48.823Z,99.99
2017-02-04T02:17:58.640Z,99.99
2017-02-04T02:19:08.453Z,99.99
2017-02-04T02:20:18.268Z,99.99
2017-02-04T02:21:27.697Z,99.99
2017-02-04T02:22:37.502Z,99.99
2017-02-04T02:23:46.548Z,99.99
2017-02-04T02:24:56.746Z,99.99
2017-02-04T02:26:06.560Z,99.99
2017-02-04T02:27:16.370Z,99.99
2017-02-04T02:28:26.603Z,99.99
2017-02-04T02:29:36.413Z,99.99
2017-02-04T02:30:45.847Z,99.99
2017-02-04T02:31:56.046Z,99.99
2017-02-04T02:33:05.861Z,99.99
2017-02-04T02:34:15.284Z,99.99
2017-02-04T02:35:24.712Z,99.99
2017-02-04T02:36:34.577Z,99.99
2017-02-04T02:37:43.621Z,99.99
2017-02-04T02:38:52.672Z,99.99
2017-02-04T02:40:02.103Z,99.99
2017-02-04T02:41:11.529Z,99.99
2017-02-04T02:42:20.956Z,99.99
2017-02-04T02:43:30.775Z,99.99
2017-02-04T02:44:39.817Z,99.99
2017-02-04T02:45:50.015Z,99.99
2017-02-04T02:47:00.205Z,99.99
2017-02-04T02:48:08.872Z,99.99
2017-02-04T02:49:17.921Z,99.99
2017-02-04T02:50:28.117Z,99.99
2017-02-04T02:51:37.543Z,99.99
2017-02-04T02:52:47.355Z,99.99
2017-02-04T02:53:56.798Z,99.99
2017-02-04T02:55:06.991Z,99.99
2017-02-04T02:56:17.566Z,99.99
2017-02-04T02:57:26.614Z,99.99
2017-02-04T02:58:35.276Z,99.99
2017-02-04T02:59:44.706Z,99.99
2017-02-04T03:00:54.134Z,99.99
2017-02-04T03:02:03.958Z,99.99
2017-02-04T03:03:13.765Z,99.99
2017-02-04T03:04:23.200Z,99.99
2017-02-04T03:05:32.249Z,99.99
2017-02-04T03:06:42.058Z,99.99
2017-02-04T03:07:51.486Z,99.99
2017-02-04T03:09:01.680Z,99.99
2017-02-04T03:10:11.875Z,99.99
2017-02-04T03:11:21.736Z,99.99
2017-02-04T03:12:31.547Z,99.99
2017-02-04T03:13:40.588Z,99.99
2017-02-04T03:14:49.635Z,99.99
2017-02-04T03:15:58.296Z,99.99
2017-02-04T03:17:08.491Z,99.99
2017-02-04T03:18:17.532Z,99.99
2017-02-04T03:19:27.346Z,99.99
2017-02-04T03:20:36.780Z,99.99
2017-02-04T03:21:45.821Z,99.99
2017-02-04T03:22:55.633Z,99.99
2017-02-04T03:24:05.443Z,99.99
2017-02-04T03:25:15.253Z,99.99
2017-02-04T03:26:24.686Z,99.99
2017-02-04T03:27:34.116Z,99.99
2017-02-04T03:28:44.695Z,99.99
2017-02-04T03:29:55.276Z,99.99
2017-02-04T03:31:05.475Z,99.99
2017-02-04T03:32:15.286Z,99.99
2017-02-04T03:33:24.327Z,99.99
2017-02-04T03:34:33.802Z,99.99
2017-02-04T03:35:44.037Z,99.99
2017-02-04T03:36:54.229Z,99.99
2017-02-04T03:38:03.656Z,99.99
2017-02-04T03:39:12.701Z,99.99
2017-02-04T03:40:22.131Z,99.99
2017-02-04T03:41:32.324Z,99.99
2017-02-04T03:42:40.988Z,99.99
2017-02-04T03:43:50.805Z,99.99
2017-02-04T03:45:01.000Z,99.99
2017-02-04T03:46:09.663Z,99.99
2017-02-04T03:47:18.745Z,99.99
2017-02-04T03:48:28.178Z,99.99
2017-02-04T03:49:36.843Z,99.99
2017-02-04T03:50:46.272Z,99.99
2017-02-04T03:51:56.521Z,99.99
2017-02-04T03:53:05.948Z,99.99
2017-02-04T03:54:14.989Z,99.99
2017-02-04T03:55:24.047Z,99.99
2017-02-04T03:56:33.094Z,99.99
2017-02-04T03:57:42.955Z,99.99
2017-02-04T03:58:52.765Z,99.99
2017-02-04T04:00:02.580Z,99.99
2017-02-04T04:01:12.011Z,99.99
2017-02-04T04:02:21.440Z,99.99
2017-02-04T04:03:30.866Z,99.99
2017-02-04T04:04:40.289Z,99.99
2017-02-04T04:05:49.332Z,99.99
2017-02-04T04:06:59.150Z,99.99
2017-02-04T04:08:08.965Z,99.99
2017-02-04T04:09:18.779Z,99.99
2017-02-04T04:10:27.823Z,99.99
2017-02-04T04:11:37.251Z,99.99
2017-02-04T04:12:46.295Z,99.99
2017-02-04T04:13:55.724Z,99.99
2017-02-04T04:15:05.535Z,99.99
2017-02-04T04:16:14.962Z,99.99
2017-02-04T04:17:24.772Z,99.99
2017-02-04T04:18:35.345Z,99.99
2017-02-04T04:19:44.773Z,99.99
2017-02-04T04:20:54.586Z,99.99
2017-02-04T04:22:04.778Z,99.99
2017-02-04T04:23:14.587Z,99.99
2017-02-04T04:24:24.399Z,99.99
2017-02-04T04:25:34.250Z,99.99
2017-02-04T04:26:44.064Z,99.99
2017-02-04T04:27:54.256Z,99.99
2017-02-04T04:29:04.449Z,99.99
2017-02-04T04:30:13.489Z,99.99
2017-02-04T04:31:22.912Z,99.99
2017-02-04T04:32:32.722Z,99.99
2017-02-04T04:33:42.533Z,99.99
2017-02-04T04:34:51.963Z,99.99
2017-02-04T04:36:01.008Z,99.99
2017-02-04T04:37:09.665Z,99.99
2017-02-04T04:38:19.905Z,99.99
2017-02-04T04:39:30.103Z,99.99
2017-02-04T04:40:39.148Z,99.99
2017-02-04T04:41:48.956Z,99.99
2017-02-04T04:42:58.383Z,99.99
2017-02-04T04:44:07.431Z,99.99
2017-02-04T04:45:16.475Z,99.99
2017-02-04T04:46:26.285Z,99.99
2017-02-04T04:47:36.097Z,99.99
2017-02-04T04:48:45.527Z,99.99
2017-02-04T04:49:54.950Z,99.99
2017-02-04T04:51:05.153Z,99.99
2017-02-04T04:52:14.967Z,99.99
2017-02-04T04:53:24.774Z,99.99
2017-02-04T04:54:34.196Z,99.99
2017-02-04T04:55:44.011Z,99.99
2017-02-04T04:56:53.821Z,99.99
2017-02-04T04:58:03.244Z,99.99
2017-02-04T04:59:13.443Z,99.99
2017-02-04T05:00:22.486Z,99.99
2017-02-04T05:01:32.299Z,99.99
2017-02-04T05:02:42.109Z,99.99
2017-02-04T05:03:51.948Z,99.99
2017-02-04T05:05:01.384Z,99.99
2017-02-04T05:06:11.574Z,99.99
2017-02-04T05:07:21.771Z,99.99
2017-02-04T05:08:31.595Z,99.99
2017-02-04T05:09:41.030Z,99.99
2017-02-04T05:10:50.845Z,99.99
2017-02-04T05:12:00.657Z,99.99
2017-02-04T05:13:09.749Z,99.99
2017-02-04T05:14:19.598Z,99.99
2017-02-04T05:15:29.025Z,99.99
2017-02-04T05:16:38.070Z,99.99
2017-02-04T05:17:47.877Z,99.99
2017-02-04T05:18:57.302Z,99.99
2017-02-04T05:20:07.492Z,99.99
2017-02-04T05:21:17.307Z,99.99
2017-02-04T05:22:25.969Z,99.99
2017-02-04T05:23:35.776Z,99.99
2017-02-04T05:24:45.250Z,99.99
2017-02-04T05:25:54.678Z,99.99
2017-02-04T05:27:04.493Z,99.99
2017-02-04T05:28:14.305Z,99.99
2017-02-04T05:29:24.117Z,99.99
2017-02-04T05:30:33.928Z,99.99
2017-02-04T05:31:42.968Z,99.99
2017-02-04T05:32:52.396Z,99.99
2017-02-04T05:34:02.590Z,99.99
2017-02-04T05:35:11.635Z,99.99
2017-02-04T05:36:21.495Z,99.99
2017-02-04T05:37:30.922Z,99.99
2017-02-04T05:38:40.737Z,99.99
2017-02-04T05:39:50.166Z,99.99
2017-02-04T05:40:59.980Z,99.99
2017-02-04T05:42:09.408Z,99.99
2017-02-04T05:43:18.839Z,99.99
2017-02-04T05:44:29.028Z,99.99
2017-02-04T05:45:38.461Z,99.99
2017-02-04T05:46:48.279Z,99.99
2017-02-04T05:47:57.753Z,99.99
2017-02-04T05:49:07.181Z,99.99
2017-02-04T05:50:16.227Z,99.99
2017-02-04T05:51:25.657Z,99.99
2017-02-04T05:52:34.711Z,99.99
2017-02-04T05:53:44.523Z,99.99
2017-02-04T05:54:53.950Z,99.99
2017-02-04T05:56:03.390Z,99.99
2017-02-04T05:57:12.814Z,99.99
2017-02-04T05:58:23.011Z,99.99
2017-02-04T05:59:32.819Z,99.99
2017-02-04T06:00:43.016Z,99.99
2017-02-04T06:01:52.829Z,99.99
2017-02-04T06:03:02.646Z,99.99
2017-02-04T06:04:12.458Z,99.99
2017-02-04T06:05:21.935Z,99.99
2017-02-04T06:06:31.746Z,99.99
2017-02-04T06:07:41.172Z,99.99
2017-02-04T06:08:50.598Z,99.99
2017-02-04T06:10:00.414Z,99.99
2017-02-04T06:11:09.455Z,99.99
2017-02-04T06:12:18.881Z,99.99
2017-02-04T06:13:29.074Z,99.99
2017-02-04T06:14:39.267Z,99.99
2017-02-04T06:15:48.314Z,99.99
2017-02-04T06:16:58.554Z,99.99
2017-02-04T06:18:08.013Z,99.99
2017-02-04T06:19:17.832Z,99.99
2017-02-04T06:20:27.639Z,99.99
2017-02-04T06:21:37.448Z,99.99
2017-02-04T06:22:46.139Z,99.99
2017-02-04T06:23:56.722Z,99.99
2017-02-04T06:25:06.914Z,99.99
2017-02-04T06:26:16.719Z,99.99
2017-02-04T06:27:25.761Z,99.99
2017-02-04T06:28:35.243Z,99.99
2017-02-04T06:29:45.054Z,99.99
2017-02-04T06:30:55.250Z,99.99
2017-02-04T06:32:05.059Z,99.99
2017-02-04T06:33:15.252Z,99.99
2017-02-04T06:34:25.114Z,99.99
2017-02-04T06:35:33.773Z,99.99
2017-02-04T06:36:43.198Z,99.99
2017-02-04T06:37:53.008Z,99.99
2017-02-04T06:39:02.431Z,99.99
2017-02-04T06:40:11.864Z,99.99
2017-02-04T06:41:22.439Z,99.99
2017-02-04T06:42:32.251Z,99.99
2017-02-04T06:43:41.292Z,99.99
2017-02-04T06:44:50.340Z,99.99
2017-02-04T06:45:59.816Z,99.99
2017-02-04T06:47:09.633Z,99.99
2017-02-04T06:48:19.057Z,99.99
2017-02-04T06:49:28.104Z,99.99
2017-02-04T06:50:37.153Z,99.99
2017-02-04T06:51:46.574Z,99.99
2017-02-04T06:52:56.769Z,99.99
2017-02-04T06:54:06.576Z,99.99
2017-02-04T06:55:16.391Z,99.99
2017-02-04T06:56:25.056Z,99.99
2017-02-04T06:57:34.533Z,99.99
2017-02-04T06:58:44.348Z,99.99
2017-02-04T06:59:54.584Z,99.99
2017-02-04T07:01:04.398Z,99.99
2017-02-04T07:02:14.213Z,99.99
2017-02-04T07:03:23.643Z,99.99
2017-02-04T07:04:33.451Z,99.99
2017-02-04T07:05:43.643Z,99.99
2017-02-04T07:06:52.688Z,99.99
2017-02-04T07:08:01.735Z,99.99
2017-02-04T07:09:11.211Z,99.99
2017-02-04T07:10:21.056Z,99.99
2017-02-04T07:11:30.866Z,99.99
2017-02-04T07:12:40.675Z,99.99
2017-02-04T07:13:50.101Z,99.99
2017-02-04T07:14:59.148Z,99.99
2017-02-04T07:16:08.578Z,99.99
2017-02-04T07:17:18.388Z,99.99
2017-02-04T07:18:28.965Z,99.99
2017-02-04T07:19:39.543Z,99.99
2017-02-04T07:20:49.736Z,99.99
2017-02-04T07:21:59.163Z,99.99
2017-02-04T07:23:09.747Z,99.99
2017-02-04T07:24:20.323Z,99.99
2017-02-04T07:25:29.364Z,99.99
2017-02-04T07:26:39.611Z,99.99
2017-02-04T07:27:49.038Z,99.99
2017-02-04T07:28:58.464Z,99.99
2017-02-04T07:30:07.895Z,99.99
2017-02-04T07:31:17.715Z,99.99
2017-02-04T07:32:26.761Z,99.99
2017-02-04T07:33:35.805Z,99.99
2017-02-04T07:34:45.622Z,99.99
2017-02-04T07:35:55.057Z,99.99
2017-02-04T07:37:04.869Z,99.99
2017-02-04T07:38:14.738Z,99.99
2017-02-04T07:39:24.172Z,99.99
2017-02-04T07:40:33.600Z,99.99
2017-02-04T07:41:43.447Z,99.99
2017-02-04T07:42:52.874Z,99.99
2017-02-04T07:44:01.971Z,99.99
2017-02-04T07:45:11.017Z,99.99
2017-02-04T07:46:20.444Z,99.99
2017-02-04T07:47:30.635Z,99.99
2017-02-04T07:48:39.291Z,99.99
2017-02-04T07:49:49.106Z,99.99
2017-02-04T07:50:59.303Z,99.99
2017-02-04T07:52:08.351Z,99.99
2017-02-04T07:53:18.546Z,99.99
2017-02-04T07:54:27.588Z,99.99
2017-02-04T07:55:37.839Z,99.99
2017-02-04T07:56:48.037Z,99.99
2017-02-04T07:57:58.237Z,99.99
2017-02-04T07:59:07.280Z,99.99
2017-02-04T08:00:16.707Z,99.99
2017-02-04T08:01:26.900Z,99.99
2017-02-04T08:02:36.329Z,99.99
2017-02-04T08:03:45.762Z,99.99
2017-02-04T08:04:55.195Z,99.99
2017-02-04T08:06:04.629Z,99.99
2017-02-04T08:07:14.115Z,99.99
2017-02-04T08:08:23.163Z,99.99
2017-02-04T08:09:32.208Z,99.99
2017-02-04T08:10:41.638Z,99.99
2017-02-04T08:11:50.687Z,99.99
2017-02-04T08:13:00.165Z,99.99
2017-02-04T08:14:08.832Z,99.99
2017-02-04T08:15:18.637Z,99.99
2017-02-04T08:16:28.835Z,99.99
2017-02-04T08:17:38.273Z,99.99
2017-02-04T08:18:48.465Z,99.99
2017-02-04T08:19:58.666Z,99.99
2017-02-04T08:21:07.713Z,99.99
2017-02-04T08:22:17.144Z,99.99
2017-02-04T08:23:26.184Z,99.99
2017-02-04T08:24:36.426Z,99.99
2017-02-04T08:25:46.664Z,99.99
2017-02-04T08:26:56.856Z,99.99
2017-02-04T08:28:06.285Z,99.99
2017-02-04T08:29:16.477Z,99.99
2017-02-04T08:30:25.571Z,99.99
2017-02-04T08:31:35.001Z,99.99
2017-02-04T08:32:43.668Z,99.99
2017-02-04T08:33:53.098Z,99.99
2017-02-04T08:35:03.294Z,99.99
2017-02-04T08:36:12.791Z,99.99
2017-02-04T08:37:22.238Z,99.99
2017-02-04T08:38:32.054Z,99.99
2017-02-04T08:39:41.863Z,99.99
2017-02-04T08:40:50.916Z,99.99
2017-02-04T08:42:00.350Z,99.99
2017-02-04T08:43:09.787Z,99.99
2017-02-04T08:44:19.600Z,99.99
2017-02-04T08:45:29.029Z,99.99
2017-02-04T08:46:38.460Z,99.99
2017-02-04T08:47:47.942Z,99.99
2017-02-04T08:48:57.755Z,99.99
2017-02-04T08:50:06.807Z,99.99
2017-02-04T08:51:17.004Z,99.99
2017-02-04T08:52:26.441Z,99.99
2017-02-04T08:53:36.369Z,99.99
2017-02-04T08:54:46.269Z,99.99
2017-02-04T08:55:55.694Z,99.99
2017-02-04T08:57:05.126Z,99.99
2017-02-04T08:58:15.004Z,99.99
2017-02-04T08:59:25.204Z,99.99
2017-02-04T09:00:34.634Z,99.99
2017-02-04T09:01:44.832Z,99.99
2017-02-04T09:02:54.261Z,99.99
2017-02-04T09:04:04.076Z,99.99
2017-02-04T09:05:14.323Z,99.99
2017-02-04T09:06:23.752Z,99.99
2017-02-04T09:07:33.184Z,99.99
2017-02-04T09:08:42.614Z,99.99
2017-02-04T09:09:52.430Z,99.99
2017-02-04T09:11:01.484Z,99.99
2017-02-04T09:12:11.297Z,99.99
2017-02-04T09:13:21.112Z,99.99
2017-02-04T09:14:30.547Z,99.99
2017-02-04T09:15:40.365Z,99.99
2017-02-04T09:16:50.179Z,99.99
2017-02-04T09:18:00.374Z,99.99
2017-02-04T09:19:09.423Z,99.99
2017-02-04T09:20:19.243Z,99.99
2017-02-04T09:21:28.292Z,99.99
2017-02-04T09:22:38.104Z,99.99
2017-02-04T09:23:47.532Z,99.99
2017-02-04T09:24:56.194Z,99.99
2017-02-04T09:26:05.626Z,99.99
2017-02-04T09:27:15.071Z,99.99
2017-02-04T09:28:24.556Z,99.99
2017-02-04T09:29:34.374Z,99.99
2017-02-04T09:30:43.440Z,99.99
2017-02-04T09:31:53.638Z,99.99
2017-02-04T09:33:03.112Z,99.99
2017-02-04T09:34:12.542Z,99.99
2017-02-04T09:35:22.745Z,99.99
2017-02-04T09:36:32.560Z,99.99
2017-02-04T09:37:42.758Z,99.99
2017-02-04T09:38:51.807Z,99.99
2017-02-04T09:40:01.245Z,99.99
2017-02-04T09:41:10.680Z,99.99
2017-02-04T09:42:20.883Z,99.99
2017-02-04T09:43:29.942Z,99.99
2017-02-04T09:44:39.760Z,99.99
2017-02-04T09:45:49.247Z,99.99
2017-02-04T09:46:58.681Z,99.99
2017-02-04T09:48:08.881Z,99.99
2017-02-04T09:49:17.931Z,99.99
2017-02-04T09:50:27.746Z,99.99
2017-02-04T09:51:38.004Z,99.99
2017-02-04T09:52:47.434Z,99.99
2017-02-04T09:53:56.483Z,99.99
2017-02-04T09:55:05.540Z,99.99
2017-02-04T09:56:14.592Z,99.99
2017-02-04T09:57:24.464Z,99.99
2017-02-04T09:58:34.289Z,99.99
2017-02-04T09:59:43.721Z,99.99
2017-02-04T10:00:53.542Z,99.99
2017-02-04T10:02:02.987Z,99.99
2017-02-04T10:03:13.184Z,99.99
2017-02-04T10:04:23.387Z,99.99
2017-02-04T10:05:33.201Z,99.99
2017-02-04T10:06:42.258Z,99.99
2017-02-04T10:07:52.080Z,99.99
2017-02-04T10:09:01.953Z,99.99
2017-02-04T10:10:12.154Z,99.99
2017-02-04T10:11:22.355Z,99.99
2017-02-04T10:12:32.184Z,99.99
2017-02-04T10:13:41.620Z,99.99
2017-02-04T10:14:50.725Z,99.99
2017-02-04T10:15:59.781Z,99.99
2017-02-04T10:17:09.599Z,99.99
2017-02-04T10:18:19.452Z,99.99
2017-02-04T10:19:30.035Z,99.99
2017-02-04T10:20:39.513Z,99.99
2017-02-04T10:21:49.333Z,99.99
2017-02-04T10:22:59.149Z,99.99
2017-02-04T10:24:08.585Z,99.99
2017-02-04T10:25:18.027Z,99.99
2017-02-04T10:26:27.510Z,99.99
2017-02-04T10:27:37.325Z,99.99
2017-02-04T10:28:46.763Z,99.99
2017-02-04T10:29:56.198Z,99.99
2017-02-04T10:31:06.793Z,99.99
2017-02-04T10:32:17.043Z,99.99
2017-02-04T10:33:27.249Z,99.99
2017-02-04T10:34:36.684Z,99.99
2017-02-04T10:35:47.267Z,99.99
2017-02-04T10:36:57.086Z,99.99
2017-02-04T10:38:06.972Z,99.99
2017-02-04T10:39:16.028Z,99.99
2017-02-04T10:40:25.462Z,99.99
2017-02-04T10:41:36.043Z,99.99
2017-02-04T10:42:45.861Z,99.99
2017-02-04T10:43:55.300Z,99.99
2017-02-04T10:45:05.503Z,99.99
2017-02-04T10:46:15.320Z,99.99
2017-02-04T10:47:25.515Z,99.99
2017-02-04T10:48:34.944Z,99.99
2017-02-04T10:49:44.426Z,99.99
2017-02-04T10:50:54.250Z,99.99
2017-02-04T10:52:04.070Z,99.99
2017-02-04T10:53:13.502Z,99.99
2017-02-04T10:54:23.706Z,99.99
2017-02-04T10:55:33.138Z,99.99
2017-02-04T10:56:42.186Z,99.99
2017-02-04T10:57:52.003Z,99.99
2017-02-04T10:59:01.052Z,99.99
2017-02-04T11:00:10.115Z,99.99
2017-02-04T11:01:18.781Z,99.99
2017-02-04T11:02:28.215Z,99.99
2017-02-04T11:03:37.646Z,99.99
2017-02-04T11:04:47.468Z,99.99
2017-02-04T11:05:57.666Z,99.99
2017-02-04T11:07:06.713Z,99.99
2017-02-04T11:08:16.147Z,99.99
2017-02-04T11:09:25.978Z,99.99
2017-02-04T11:10:35.433Z,99.99
2017-02-04T11:11:44.868Z,99.99
2017-02-04T11:12:54.352Z,99.99
2017-02-04T11:14:04.169Z,99.99
2017-02-04T11:15:14.368Z,99.99
2017-02-04T11:16:23.036Z,99.99
2017-02-04T11:17:32.858Z,99.99
2017-02-04T11:18:42.293Z,99.99
2017-02-04T11:19:51.723Z,99.99
2017-02-04T11:21:01.540Z,99.99
2017-02-04T11:22:12.125Z,99.99
2017-02-04T11:23:21.943Z,99.99
2017-02-04T11:24:31.424Z,99.99
2017-02-04T11:25:41.239Z,99.99
2017-02-04T11:26:51.053Z,99.99
2017-02-04T11:28:00.101Z,99.99
2017-02-04T11:29:09.538Z,99.99
2017-02-04T11:30:20.123Z,99.99
2017-02-04T11:31:30.322Z,99.99
2017-02-04T11:32:40.141Z,99.99
2017-02-04T11:33:49.962Z,99.99
2017-02-04T11:34:59.778Z,99.99
2017-02-04T11:36:09.208Z,99.99
2017-02-04T11:37:18.654Z,99.99
2017-02-04T11:38:28.474Z,99.99
2017-02-04T11:39:38.294Z,99.99
2017-02-04T11:40:48.118Z,99.99
2017-02-04T11:41:57.174Z,99.99
2017-02-04T11:43:06.267Z,99.99
2017-02-04T11:44:15.363Z,99.99
2017-02-04T11:45:24.174Z,99.99
2017-02-04T11:46:34.371Z,99.99
2017-02-04T11:47:43.474Z,99.99
2017-02-04T11:48:53.711Z,99.99
2017-02-04T11:50:03.537Z,99.99
2017-02-04T11:51:12.591Z,99.99
2017-02-04T11:52:22.414Z,99.99
2017-02-04T11:53:32.608Z,99.99
2017-02-04T11:54:41.658Z,99.99
2017-02-04T11:55:51.084Z,99.99
2017-02-04T11:57:01.286Z,99.99
2017-02-04T11:58:10.719Z,99.99
2017-02-04T11:59:20.923Z,99.99
2017-02-04T12:00:30.742Z,99.99
2017-02-04T12:01:40.176Z,99.99
2017-02-04T12:02:49.609Z,99.99
2017-02-04T12:03:59.043Z,99.99
2017-02-04T12:05:08.475Z,99.99
2017-02-04T12:06:18.681Z,99.99
2017-02-04T12:07:28.108Z,99.99
2017-02-04T12:08:37.926Z,99.99
2017-02-04T12:09:47.747Z,99.99
2017-02-04T12:10:57.175Z,99.99
2017-02-04T12:12:06.615Z,99.99
2017-02-04T12:13:16.434Z,99.99
2017-02-04T12:14:26.252Z,99.99
2017-02-04T12:15:36.073Z,99.99
2017-02-04T12:16:45.504Z,99.99
2017-02-04T12:17:55.705Z,99.99
2017-02-04T12:19:05.524Z,99.99
2017-02-04T12:20:14.967Z,99.99
2017-02-04T12:21:24.405Z,99.99
2017-02-04T12:22:34.605Z,99.99
2017-02-04T12:23:44.422Z,99.99
2017-02-04T12:24:53.479Z,99.99
2017-02-04T12:26:04.062Z,99.99
2017-02-04T12:27:13.497Z,99.99
2017-02-04T12:28:23.316Z,99.99
2017-02-04T12:29:32.755Z,99.99
2017-02-04T12:30:42.190Z,99.99
2017-02-04T12:31:52.008Z,99.99
2017-02-04T12:33:01.824Z,99.99
2017-02-04T12:34:11.258Z,99.99
2017-02-04T12:35:21.076Z,99.99
2017-02-04T12:36:30.890Z,99.99
2017-02-04T12:37:40.326Z,99.99
2017-02-04T12:38:50.140Z,99.99
2017-02-04T12:39:58.803Z,99.99
2017-02-04T12:41:08.622Z,99.99
2017-02-04T12:42:18.442Z,99.99
2017-02-04T12:43:27.876Z,99.99
2017-02-04T12:44:37.326Z,99.99
2017-02-04T12:45:47.145Z,99.99
2017-02-04T12:46:56.969Z,99.99
2017-02-04T12:48:07.587Z,99.99
2017-02-04T12:49:17.787Z,99.99
2017-02-04T12:50:27.989Z,99.99
2017-02-04T12:51:37.040Z,99.99
2017-02-04T12:52:47.623Z,99.99
2017-02-04T12:53:56.670Z,99.99
2017-02-04T12:55:05.728Z,99.99
2017-02-04T12:56:14.775Z,99.99
2017-02-04T12:57:24.264Z,99.99
2017-02-04T12:58:33.698Z,99.99
2017-02-04T12:59:43.515Z,99.69
2017-02-04T13:00:52.568Z,99.69
2017-02-04T13:02:01.999Z,99.4
2017-02-04T13:03:12.584Z,99.88
2017-02-04T13:04:22.404Z,99.99
2017-02-04T13:05:32.606Z,99.78
2017-02-04T13:06:41.269Z,99.59
2017-02-04T13:07:51.470Z,99.02
2017-02-04T13:09:01.296Z,99.59
2017-02-04T13:10:10.728Z,99.02
2017-02-04T13:11:20.942Z,99.78
2017-02-04T13:12:29.995Z,99.02
2017-02-04T13:13:39.817Z,98.55
2017-02-04T13:14:49.258Z,98.83
2017-02-04T13:15:59.108Z,99.11
2017-02-04T13:17:08.544Z,99.11
2017-02-04T13:18:17.594Z,99.99
2017-02-04T13:19:26.644Z,99.45
2017-02-04T13:20:36.464Z,98.97
2017-02-04T13:21:46.280Z,98.79
2017-02-04T13:22:56.103Z,97.36
2017-02-04T13:24:05.920Z,98.31
2017-02-04T13:25:15.357Z,98.22
2017-02-04T13:26:24.841Z,97.45
2017-02-04T13:27:34.658Z,96.98
2017-02-04T13:28:43.714Z,98.93
2017-02-04T13:29:52.766Z,98.5
2017-02-04T13:31:03.349Z,98.41
2017-02-04T13:32:13.205Z,98.22
2017-02-04T13:33:23.409Z,98.97
2017-02-04T13:34:32.845Z,98.41
2017-02-04T13:35:43.426Z,98.41
2017-02-04T13:36:53.624Z,97.83
2017-02-04T13:38:02.730Z,96.41
2017-02-04T13:39:12.164Z,96.89
2017-02-04T13:40:21.601Z,96.41
2017-02-04T13:41:31.032Z,97.36
2017-02-04T13:42:40.864Z,96.5
2017-02-04T13:43:50.731Z,96.31
2017-02-04T13:45:01.311Z,97.36
2017-02-04T13:46:11.124Z,97.08
2017-02-04T13:47:20.943Z,96.89
2017-02-04T13:48:31.142Z,97.55
2017-02-04T13:49:40.624Z,97.45
2017-02-04T13:50:50.057Z,97.17
2017-02-04T13:51:59.876Z,96.5
2017-02-04T13:53:09.693Z,98.6
2017-02-04T13:54:19.898Z,97.36
2017-02-04T13:55:29.382Z,97.17
2017-02-04T13:56:38.816Z,97.08
2017-02-04T13:57:48.251Z,97.17
2017-02-04T13:58:58.490Z,97.36
2017-02-04T14:00:08.311Z,97.55
2017-02-04T14:01:18.895Z,96.98
2017-02-04T14:02:28.331Z,98.07
2017-02-04T14:03:38.153Z,97.97
2017-02-04T14:04:47.965Z,98.36
2017-02-04T14:05:58.164Z,97.97
2017-02-04T14:07:08.174Z,98.64
2017-02-04T14:08:17.611Z,98.74
2017-02-04T14:09:27.428Z,99.21
2017-02-04T14:10:36.859Z,99.4
2017-02-04T14:11:45.915Z,99.78
2017-02-04T14:12:54.960Z,99.97
2017-02-04T14:14:04.778Z,99.88
2017-02-04T14:15:14.981Z,99.99
2017-02-04T14:16:24.043Z,99.99
2017-02-04T14:17:33.476Z,99.99
2017-02-04T14:18:42.535Z,99.99
2017-02-04T14:19:51.586Z,99.99
2017-02-04T14:21:01.019Z,99.99
2017-02-04T14:22:11.607Z,99.99
2017-02-04T14:23:21.421Z,99.99
2017-02-04T14:24:30.168Z,99.99
2017-02-04T14:25:39.985Z,99.99
2017-02-04T14:26:49.799Z,99.99
2017-02-04T14:27:59.231Z,99.99
2017-02-04T14:29:09.091Z,99.99
2017-02-04T14:30:18.908Z,99.99
2017-02-04T14:31:29.495Z,99.99
2017-02-04T14:32:40.078Z,99.99
2017-02-04T14:33:49.897Z,99.99
2017-02-04T14:35:00.094Z,99.99
2017-02-04T14:36:09.531Z,99.99
2017-02-04T14:37:18.195Z,99.99
2017-02-04T14:38:26.861Z,99.99
2017-02-04T14:39:35.911Z,99.99
2017-02-04T14:40:44.958Z,99.99
2017-02-04T14:41:54.797Z,99.99
2017-02-04T14:43:04.611Z,99.99
2017-02-04T14:44:14.808Z,99.99
2017-02-04T14:45:24.627Z,99.99
2017-02-04T14:46:34.069Z,99.99
2017-02-04T14:47:43.563Z,99.99
2017-02-04T14:48:53.004Z,99.99
2017-02-04T14:50:02.823Z,99.99
2017-02-04T14:51:11.876Z,99.99
2017-02-04T14:52:21.688Z,99.99
2017-02-04T14:53:30.347Z,99.99
2017-02-04T14:54:39.395Z,99.99
2017-02-04T14:55:49.595Z,99.99
2017-02-04T14:56:59.793Z,99.99